Knoxville, TN (37998)

7:29 PM EST on December 04, 2016 (GMT -0500)
Shady Grove | | Change Station

Elev 930 ft 36.00 °N, 83.78 °W | Updated 16 seconds ago

Light Rain
Light Rain Mist
45.5 °F
Feels Like 46 °F
N
0.0
Wind Variable Wind from NW
Gusts 0.0 mph

Today
High -- | Low -- °F
--% Chance of Precip.
Yesterday
High -- | Low -- °F
Precip. -- in
Pressure 29.98 in
Visibility 2.0 miles
Clouds Few 300 ft
Overcast 800 ft
Windchill 46 °F
Dew Point 45 °F
Humidity 97%
Rainfall 1.02 in
Snow Depth Not available.
7:30 AM 5:20 PM
Waxing Crescent, 26% visible
METAR KTYS 042353Z 00000KT 2SM -RA BR FEW003 OVC008 07/06 A2997 RMK AO2 SLP152 P0002 60034 T00720061 10072 20056 53002 $
Pressure 29.98 in
Visibility 2.0 miles
Clouds Few 300 ft
Overcast 800 ft
Windchill 46 °F
Dew Point 45 °F
Humidity 97%
Rainfall 1.02 in
Snow Depth Not available.
7:30 AM 5:20 PM
Waxing Crescent, 26% visible
METAR KTYS 042353Z 00000KT 2SM -RA BR FEW003 OVC008 07/06 A2997 RMK AO2 SLP152 P0002 60034 T00720061 10072 20056 53002 $

10-Day Weather Forecast

Almanac

Astronomy

Dec. 04, 2016 Rise Set
Actual Time
Civil Twilight
Nautical Twilight
Astronomical Twilight
Moon
Length of Visible Light
Length of Day
Tomorrow will be .
, % of the Moon is Illuminated

Today's Extremes

State Highs State Lows

Community

WunderPhotos

Upload Photos

1,955,724 photos uploaded!

WunderBlog® & News

Nearby

Air Quality

  Air Quality AQ Index Pollutant
Not available.

Snow Depth

Station Depth Elevation

Earthquake Activity

City Distance Mag. Time & Date
Minimum magnitude displayed is 2.5.

Coastal Water Temperatures

Place Temperature

Stations

Nearby Weather Stations

Station Location Temp. Windchill Dew Point Humidity Wind Precip. Elev Updated Type
                   

Watches & Warnings

There are currently no watches in effect.